Aviation Digital Data Service (ADDS)

Output produced by METARs form (1334 UTC 15 November 2018)
found at http://www.aviationweather.gov/metar/data/
 
VNKT 151320Z 18003KT 6000 FEW020 15/09 Q1018 NOSIG
TAF VNKT 151100Z 1512/1612 28006KT 7000 FEW020 
     BECMG 1514/1515 11003KT 6000 FEW015 
     BECMG 1600/1602 00000KT 4000 BR FEW015 
     PROB40 1601/1603 3000 BR 
     BECMG 1604/1605 09003KT 6000 FEW015 
     BECMG 1607/1608 29010KT 8000 FEW020 SCT030